createdAt,value
2018-11-01T00:01:16.092Z,18
2018-11-01T00:06:24.232Z,18
2018-11-01T00:11:32.386Z,18
2018-11-01T00:16:40.545Z,17.9
2018-11-01T00:32:05.012Z,17.7
2018-11-01T00:47:29.665Z,17.4
2018-11-01T00:57:47.203Z,17.2
2018-11-01T01:02:54.275Z,17.1
2018-11-01T01:08:02.466Z,17.1
2018-11-01T01:18:18.953Z,16.9
2018-11-01T01:28:35.753Z,16.9
2018-11-01T01:38:51.992Z,16.6
2018-11-01T01:44:00.252Z,16.6
2018-11-01T01:49:08.510Z,16.6
2018-11-01T01:54:16.765Z,16.7
2018-11-01T01:59:24.928Z,16.6
2018-11-01T02:14:49.790Z,16.7
2018-11-01T02:19:58.026Z,16.8
2018-11-01T02:30:14.568Z,16.8
2018-11-01T02:35:22.810Z,16.9
2018-11-01T02:40:30.959Z,16.9
2018-11-01T02:45:39.275Z,16.9
2018-11-01T02:50:47.535Z,16.9
2018-11-01T03:01:03.860Z,16.8
2018-11-01T03:11:20.377Z,16.8
2018-11-01T03:21:36.849Z,16.8
2018-11-01T03:26:45.094Z,16.8
2018-11-01T03:31:53.350Z,16.7
2018-11-01T03:42:09.848Z,16.5
2018-11-01T04:02:42.888Z,16.2
2018-11-01T04:07:51.148Z,16.2
2018-11-01T04:12:59.379Z,16.1
2018-11-01T04:18:07.720Z,16.1
2018-11-01T04:23:15.898Z,16
2018-11-01T04:28:24.285Z,16
2018-11-01T04:33:32.597Z,15.8
2018-11-01T04:43:49.219Z,15.8
2018-11-01T04:48:57.506Z,15.7
2018-11-01T04:54:05.794Z,15.8
2018-11-01T04:59:14.124Z,15.7
2018-11-01T05:04:22.445Z,15.7
2018-11-01T05:09:30.766Z,15.6
2018-11-01T05:14:39.122Z,15.5
2018-11-01T05:19:47.428Z,15.6
2018-11-01T05:24:55.775Z,15.6
2018-11-01T05:30:04.099Z,15.5
2018-11-01T05:45:29.148Z,15.3
2018-11-01T05:50:37.554Z,15.2
2018-11-01T05:55:45.842Z,15.2
2018-11-01T06:00:54.198Z,15.1
2018-11-01T06:11:10.933Z,14.9
2018-11-01T06:16:19.297Z,14.9
2018-11-01T06:21:27.697Z,14.7
2018-11-01T06:26:36.082Z,14.7
2018-11-01T06:31:44.505Z,14.6
2018-11-01T06:36:53.264Z,14.6
2018-11-01T06:42:01.316Z,14.5
2018-11-01T06:47:09.616Z,14.5
2018-11-01T06:57:26.533Z,14.3
2018-11-01T07:07:43.373Z,14.4
2018-11-01T07:23:08.674Z,14.7
2018-11-01T07:28:17.019Z,14.8
2018-11-01T07:33:25.397Z,15.1
2018-11-01T07:38:33.795Z,15.2
2018-11-01T07:48:50.518Z,15.9
2018-11-01T07:53:58.826Z,16.1
2018-11-01T07:59:07.166Z,16.4
2018-11-01T08:09:23.767Z,17.1
2018-11-01T08:14:31.946Z,17.5
2018-11-01T08:19:40.177Z,17.9
2018-11-01T08:24:48.358Z,18.1
2018-11-01T08:29:56.543Z,18.3
2018-11-01T08:35:04.704Z,18.7
2018-11-01T08:40:12.814Z,18.9
2018-11-01T08:45:20.937Z,19
2018-11-01T08:50:29.031Z,19.1
2018-11-01T08:55:37.104Z,19.5
2018-11-01T09:05:53.151Z,19.9
2018-11-01T09:11:01.251Z,20
2018-11-01T09:16:09.299Z,20.2
2018-11-01T09:21:17.334Z,20.3
2018-11-01T09:31:33.393Z,20.4
2018-11-01T09:36:41.400Z,20.4
2018-11-01T09:41:49.444Z,20.5
2018-11-01T09:46:57.356Z,20.6
2018-11-01T09:52:05.449Z,20.6
2018-11-01T09:57:13.459Z,20.6
2018-11-01T10:02:21.477Z,20.7
2018-11-01T10:07:29.472Z,20.7
2018-11-01T10:12:37.425Z,20.9
2018-11-01T10:17:45.427Z,20.9
2018-11-01T10:22:53.407Z,21.1
2018-11-01T10:28:01.419Z,21.1
2018-11-01T10:33:09.368Z,21.2
2018-11-01T10:38:17.334Z,21.1
2018-11-01T10:48:33.315Z,21.3
2018-11-01T10:53:41.243Z,21.3
2018-11-01T10:58:49.250Z,21.4
2018-11-01T11:03:57.189Z,21.4
2018-11-01T11:09:05.127Z,21.4
2018-11-01T11:14:12.991Z,21.6
2018-11-01T11:19:21.397Z,21.5
2018-11-01T11:24:29.132Z,21.5
2018-11-01T11:29:36.953Z,21.6
2018-11-01T11:34:44.823Z,21.6
2018-11-01T11:39:52.859Z,21.4
2018-11-01T11:45:00.877Z,21.6
2018-11-01T11:50:08.870Z,21.6
2018-11-01T11:55:16.741Z,21.6
2018-11-01T12:00:24.716Z,21.6
2018-11-01T12:05:32.535Z,21.7
2018-11-01T12:15:48.398Z,21.8
2018-11-01T12:20:56.393Z,21.9
2018-11-01T12:36:20.280Z,21.9
2018-11-01T12:41:28.070Z,22
2018-11-01T12:46:35.994Z,22
2018-11-01T12:51:43.946Z,22.1
2018-11-01T12:56:51.795Z,22.2
2018-11-01T13:07:07.562Z,22
2018-11-01T13:12:15.551Z,21.9
2018-11-01T13:17:23.434Z,22
2018-11-01T13:27:39.268Z,21.9
2018-11-01T13:32:47.150Z,21.8
2018-11-01T13:37:55.092Z,21.8
2018-11-01T13:43:02.932Z,21.7
2018-11-01T13:48:10.956Z,21.7
2018-11-01T13:53:18.888Z,21.7
2018-11-01T13:58:26.826Z,21.6
2018-11-01T14:13:50.705Z,21.3
2018-11-01T14:29:14.622Z,20.8
2018-11-01T14:34:22.659Z,20.6
2018-11-01T14:39:30.623Z,20.5
2018-11-01T14:44:38.685Z,20.5
2018-11-01T14:49:46.668Z,20.3
2018-11-01T14:54:54.666Z,20.3
2018-11-01T15:00:02.711Z,20.3
2018-11-01T15:05:10.780Z,20.2
2018-11-01T15:10:18.754Z,20.2
2018-11-01T15:15:26.781Z,20.1
2018-11-01T15:20:34.813Z,19.9
2018-11-01T15:25:42.870Z,19.9
2018-11-01T15:30:51.005Z,19.7
2018-11-01T15:41:07.117Z,19.6
2018-11-01T15:46:15.179Z,19.5
2018-11-01T15:56:31.367Z,19.2
2018-11-01T16:01:39.495Z,19
2018-11-01T16:11:55.767Z,18.8
2018-11-01T16:22:11.964Z,18.4
2018-11-01T16:27:20.209Z,18.3
2018-11-01T16:32:28.359Z,18.2
2018-11-01T16:37:36.569Z,18
2018-11-01T16:42:46.278Z,17.9
2018-11-01T16:47:52.943Z,17.9
2018-11-01T16:53:02.394Z,17.6
2018-11-01T16:58:09.487Z,17.5
2018-11-01T17:08:25.908Z,17.5
2018-11-01T17:13:34.191Z,17.5
2018-11-01T17:18:42.404Z,17.4
2018-11-01T17:23:50.654Z,17.5
2018-11-01T17:28:58.920Z,17.5
2018-11-01T17:44:23.657Z,17.5
2018-11-01T17:49:31.873Z,17.6
2018-11-01T17:54:40.098Z,17.6
2018-11-01T17:59:48.376Z,17.6
2018-11-01T18:10:04.843Z,17.6
2018-11-01T18:15:13.079Z,17.7
2018-11-01T18:25:29.537Z,17.8
2018-11-01T18:30:37.752Z,17.7
2018-11-01T18:35:45.969Z,17.8
2018-11-01T18:40:54.180Z,17.8
2018-11-01T18:51:10.594Z,17.9
2018-11-01T18:56:18.805Z,17.8
2018-11-01T19:06:35.208Z,17.8
2018-11-01T19:16:51.599Z,17.7
2018-11-01T19:27:08.026Z,17.4
2018-11-01T19:37:24.489Z,17.2
2018-11-01T19:52:49.169Z,17.1
2018-11-01T20:08:14.087Z,16.9
2018-11-01T20:18:30.502Z,16.9
2018-11-01T20:28:47.165Z,16.9
2018-11-01T20:39:03.769Z,16.8
2018-11-01T20:49:20.320Z,16.8
2018-11-01T20:54:28.647Z,16.8
2018-11-01T21:09:53.545Z,16.7
2018-11-01T21:15:01.890Z,16.6
2018-11-01T21:20:10.145Z,16.6
2018-11-01T21:30:26.718Z,16.7
2018-11-01T21:35:34.991Z,16.7
2018-11-01T21:40:43.327Z,16.7
2018-11-01T21:45:51.561Z,16.6
2018-11-01T21:50:59.856Z,16.7
2018-11-01T21:56:08.155Z,16.7
2018-11-01T22:01:16.443Z,16.7
2018-11-01T22:06:24.718Z,16.6
2018-11-01T22:16:41.194Z,16.6
2018-11-01T22:21:49.593Z,16.7
2018-11-01T22:32:06.142Z,16.7
2018-11-01T22:37:14.385Z,16.7
2018-11-01T22:52:39.266Z,16.7
2018-11-01T23:02:55.765Z,16.7
2018-11-01T23:08:04.077Z,16.7
2018-11-01T23:13:12.272Z,16.7
2018-11-01T23:18:20.563Z,16.7
2018-11-01T23:23:28.940Z,16.7
2018-11-01T23:33:45.517Z,16.7
2018-11-01T23:38:53.819Z,16.7
2018-11-01T23:44:02.030Z,16.7
2018-11-01T23:54:18.595Z,16.8
